createdAt,value
2019-03-12T00:01:13.375Z,14.13
2019-03-12T00:03:43.115Z,13.33
2019-03-12T00:06:12.940Z,18.57
2019-03-12T00:08:42.705Z,13.20
2019-03-12T00:11:12.504Z,10.80
2019-03-12T00:13:42.760Z,21.20
2019-03-12T00:16:12.601Z,18.47
2019-03-12T00:18:42.407Z,13.40
2019-03-12T00:21:12.319Z,15.70
2019-03-12T00:23:42.105Z,14.17
2019-03-12T00:26:12.011Z,12.03
2019-03-12T00:28:43.158Z,25.50
2019-03-12T00:31:12.989Z,9.30
2019-03-12T00:33:42.827Z,14.00
2019-03-12T00:36:12.676Z,17.63
2019-03-12T00:38:42.485Z,15.70
2019-03-12T00:41:12.234Z,14.57
2019-03-12T00:43:43.375Z,10.13
2019-03-12T00:46:13.224Z,11.90
2019-03-12T00:48:44.059Z,17.43
2019-03-12T00:51:13.859Z,6.90
2019-03-12T00:53:43.675Z,12.07
2019-03-12T00:56:13.847Z,7.67
2019-03-12T00:58:43.553Z,20.23
2019-03-12T01:01:14.331Z,14.73
2019-03-12T01:03:44.131Z,13.63
2019-03-12T01:06:13.964Z,12.30
2019-03-12T01:08:43.853Z,13.20
2019-03-12T01:11:13.765Z,16.57
2019-03-12T01:13:43.654Z,12.07
2019-03-12T01:16:13.390Z,15.63
2019-03-12T01:18:43.464Z,19.37
2019-03-12T01:21:13.169Z,18.27
2019-03-12T01:23:43.032Z,17.07
2019-03-12T01:26:12.947Z,12.90
2019-03-12T01:28:42.722Z,26.07
2019-03-12T01:31:12.616Z,15.33
2019-03-12T01:33:42.569Z,14.80
2019-03-12T01:36:12.460Z,15.60
2019-03-12T01:38:42.381Z,13.27
2019-03-12T01:41:12.198Z,14.80
2019-03-12T01:43:42.247Z,11.10
2019-03-12T01:46:12.028Z,16.60
2019-03-12T01:48:41.849Z,15.40
2019-03-12T01:51:11.647Z,10.50
2019-03-12T01:53:41.559Z,15.60
2019-03-12T01:56:11.614Z,11.90
2019-03-12T01:58:41.444Z,14.53
2019-03-12T02:01:11.573Z,11.97
2019-03-12T02:03:41.414Z,18.90
2019-03-12T02:06:11.514Z,16.90
2019-03-12T02:08:41.419Z,22.87
2019-03-12T02:11:11.276Z,13.63
2019-03-12T02:13:41.111Z,20.73
2019-03-12T02:16:11.006Z,32.00
2019-03-12T02:18:40.851Z,18.83
2019-03-12T02:21:10.749Z,18.33
2019-03-12T02:23:40.506Z,17.83
2019-03-12T02:26:10.344Z,13.50
2019-03-12T02:28:40.150Z,13.70
2019-03-12T02:31:09.966Z,12.67
2019-03-12T02:33:39.751Z,17.60
2019-03-12T02:36:09.876Z,22.03
2019-03-12T02:38:39.739Z,18.47
2019-03-12T02:41:09.912Z,14.03
2019-03-12T02:43:39.603Z,14.93
2019-03-12T02:46:09.536Z,23.70
2019-03-12T02:48:39.379Z,18.03
2019-03-12T02:51:09.576Z,16.43
2019-03-12T02:53:39.398Z,16.13
2019-03-12T02:56:09.312Z,11.37
2019-03-12T02:58:39.181Z,10.80
2019-03-12T03:01:09.278Z,15.53
2019-03-12T03:03:39.350Z,14.50
2019-03-12T03:06:15.979Z,11.33
2019-03-12T03:08:45.780Z,11.80
2019-03-12T03:11:15.461Z,10.90
2019-03-12T03:13:45.138Z,6.97
2019-03-12T03:16:14.834Z,20.47
2019-03-12T03:18:44.594Z,20.83
2019-03-12T03:21:14.391Z,12.60
2019-03-12T03:23:44.166Z,17.47
2019-03-12T03:26:14.740Z,21.33
2019-03-12T03:28:44.530Z,13.30
2019-03-12T03:31:14.652Z,30.13
2019-03-12T03:33:44.504Z,19.53
2019-03-12T03:36:14.279Z,18.50
2019-03-12T03:38:43.931Z,17.13
2019-03-12T03:41:13.754Z,22.70
2019-03-12T03:43:43.568Z,24.57
2019-03-12T03:46:13.676Z,19.23
2019-03-12T03:48:43.495Z,14.77
2019-03-12T03:51:13.290Z,17.77
2019-03-12T03:53:43.084Z,26.97
2019-03-12T03:56:12.878Z,13.83
2019-03-12T03:58:42.709Z,15.70
2019-03-12T04:01:12.624Z,29.87
2019-03-12T04:03:42.409Z,29.53
2019-03-12T04:06:12.199Z,35.90
2019-03-12T04:08:42.227Z,22.83
2019-03-12T04:11:12.069Z,17.00
2019-03-12T04:13:41.971Z,29.47
2019-03-12T04:16:11.805Z,32.13
2019-03-12T04:18:41.549Z,23.77
2019-03-12T04:21:11.353Z,47.43
2019-03-12T04:23:41.162Z,39.33
2019-03-12T04:26:10.950Z,53.93
2019-03-12T04:28:40.735Z,34.80
2019-03-12T04:31:10.557Z,55.83
2019-03-12T04:34:28.893Z,57.87
2019-03-12T04:36:58.770Z,48.93
2019-03-12T04:39:28.486Z,50.37
2019-03-12T04:41:58.435Z,41.33
2019-03-12T04:44:28.345Z,24.37
2019-03-12T04:46:58.507Z,51.37
2019-03-12T04:49:28.269Z,45.67
2019-03-12T04:51:58.068Z,37.27
2019-03-12T04:54:27.977Z,49.07
2019-03-12T04:56:57.854Z,37.97
2019-03-12T04:59:27.688Z,35.13
2019-03-12T05:01:57.427Z,47.90
2019-03-12T05:04:27.152Z,27.57
2019-03-12T05:06:56.929Z,42.30
2019-03-12T05:09:26.658Z,16.60
2019-03-12T05:11:56.723Z,24.67
2019-03-12T05:14:31.173Z,29.00
2019-03-12T05:17:14.895Z,22.40
2019-03-12T05:19:46.230Z,43.23
2019-03-12T05:22:17.834Z,27.40
2019-03-12T05:24:47.628Z,17.03
2019-03-12T05:27:17.430Z,15.47
2019-03-12T05:29:47.214Z,25.20
2019-03-12T05:32:17.270Z,27.13
2019-03-12T05:34:47.169Z,11.47
2019-03-12T05:37:16.915Z,19.60
2019-03-12T05:39:46.965Z,28.50
2019-03-12T05:42:16.789Z,20.20
2019-03-12T05:44:46.642Z,20.27
2019-03-12T05:47:16.720Z,18.80
2019-03-12T05:49:46.514Z,18.90
2019-03-12T05:52:16.296Z,23.77
2019-03-12T05:54:46.143Z,13.33
2019-03-12T05:57:16.317Z,16.77
2019-03-12T05:59:46.195Z,21.67
2019-03-12T06:02:16.349Z,22.07
2019-03-12T06:04:46.428Z,24.83
2019-03-12T06:07:16.208Z,22.10
2019-03-12T06:09:45.948Z,16.90
2019-03-12T06:12:15.753Z,16.40
2019-03-12T06:14:45.834Z,7.83
2019-03-12T06:17:15.613Z,11.23
2019-03-12T06:19:45.473Z,22.27
2019-03-12T06:22:15.401Z,22.30
2019-03-12T06:24:45.108Z,13.07
2019-03-12T06:27:18.008Z,23.07
2019-03-12T06:29:47.057Z,21.43
2019-03-12T06:32:36.190Z,11.50
2019-03-12T06:35:24.162Z,19.13
2019-03-12T06:38:11.641Z,20.47
2019-03-12T06:40:52.739Z,19.20
2019-03-12T06:43:39.149Z,10.13
2019-03-12T06:46:22.370Z,18.57
2019-03-12T06:49:10.422Z,19.93
2019-03-12T06:52:05.230Z,14.73
2019-03-12T06:54:43.894Z,14.63
2019-03-12T06:57:32.708Z,9.23
2019-03-12T07:00:20.236Z,19.37
2019-03-12T07:03:12.044Z,15.67
2019-03-12T07:05:52.810Z,16.10
2019-03-12T07:08:34.223Z,17.53
2019-03-12T07:11:36.800Z,8.37
2019-03-12T07:14:22.706Z,16.00
2019-03-12T07:16:59.136Z,20.63
2019-03-12T07:19:48.034Z,17.60
2019-03-12T07:22:39.695Z,9.93
2019-03-12T07:25:24.908Z,16.27
2019-03-12T07:28:03.720Z,17.33
2019-03-12T07:30:53.763Z,19.40
2019-03-12T07:33:41.560Z,13.83
2019-03-12T07:36:18.956Z,12.70
2019-03-12T07:39:06.340Z,17.53
2019-03-12T07:41:58.192Z,14.43
2019-03-12T07:44:53.381Z,17.67
2019-03-12T07:47:35.764Z,15.40
2019-03-12T07:50:39.232Z,21.87
2019-03-12T07:53:40.199Z,19.80
2019-03-12T07:56:29.904Z,8.00
2019-03-12T07:59:12.838Z,17.13
2019-03-12T08:02:09.101Z,15.83
2019-03-12T08:04:56.402Z,5.47
2019-03-12T08:07:43.773Z,20.23
2019-03-12T08:10:19.300Z,11.70
2019-03-12T08:13:05.477Z,17.57
2019-03-12T08:15:53.359Z,16.03
2019-03-12T08:18:35.763Z,13.57
2019-03-12T08:21:30.718Z,18.10
2019-03-12T08:24:34.832Z,7.07
2019-03-12T08:27:26.862Z,11.77
2019-03-12T08:30:08.736Z,7.77
2019-03-12T08:32:56.408Z,13.87
2019-03-12T08:35:44.009Z,14.60
2019-03-12T08:38:35.902Z,9.90
2019-03-12T08:41:32.078Z,8.63
2019-03-12T08:44:17.491Z,16.47
2019-03-12T08:47:12.561Z,9.63
2019-03-12T08:50:00.398Z,11.83
2019-03-12T08:52:49.210Z,15.33
2019-03-12T08:55:44.149Z,7.47
2019-03-12T08:58:38.739Z,11.93
2019-03-12T09:01:26.308Z,13.90
2019-03-12T09:04:14.617Z,9.77
2019-03-12T09:06:57.038Z,7.13
2019-03-12T09:09:34.763Z,13.13
2019-03-12T09:12:21.181Z,5.93
2019-03-12T09:15:08.637Z,9.53
2019-03-12T09:17:50.213Z,6.37
2019-03-12T09:20:39.512Z,7.37
2019-03-12T09:23:28.302Z,9.83
2019-03-12T09:26:15.907Z,2.40
2019-03-12T09:29:02.885Z,8.30
2019-03-12T09:31:44.322Z,6.90
2019-03-12T09:34:36.596Z,5.57
2019-03-12T09:37:15.558Z,14.67
2019-03-12T09:40:13.292Z,8.03
2019-03-12T09:43:08.131Z,11.00
2019-03-12T09:45:56.843Z,13.00
2019-03-12T09:48:37.569Z,9.97
2019-03-12T09:51:20.856Z,7.80
2019-03-12T09:54:02.774Z,10.00
2019-03-12T09:56:51.951Z,13.73
2019-03-12T09:59:40.735Z,10.83
2019-03-12T10:02:38.696Z,5.90
2019-03-12T10:05:30.624Z,8.60
2019-03-12T10:08:18.289Z,9.03
2019-03-12T10:11:05.734Z,10.97
2019-03-12T10:13:53.599Z,6.50
2019-03-12T10:16:46.986Z,5.60
2019-03-12T10:19:35.766Z,2.97
2019-03-12T10:22:23.362Z,4.13
2019-03-12T10:25:14.563Z,10.77
2019-03-12T10:27:53.420Z,4.87
2019-03-12T10:30:31.517Z,8.13
2019-03-12T10:33:23.259Z,9.10
2019-03-12T10:36:12.101Z,8.53
2019-03-12T10:39:26.955Z,7.47
2019-03-12T10:42:13.886Z,6.37
2019-03-12T10:44:53.135Z,3.70
2019-03-12T10:47:24.021Z,8.07
2019-03-12T10:49:53.809Z,8.67
2019-03-12T10:52:23.502Z,6.10
2019-03-12T10:54:53.676Z,7.87
2019-03-12T10:57:23.446Z,9.17
2019-03-12T10:59:53.484Z,8.07
2019-03-12T11:02:23.257Z,7.40
2019-03-12T11:04:53.287Z,9.40
2019-03-12T11:07:23.074Z,5.97
2019-03-12T11:09:53.215Z,9.67
2019-03-12T11:12:22.964Z,9.07
2019-03-12T11:14:53.193Z,5.80
2019-03-12T11:17:22.997Z,5.63
2019-03-12T11:19:52.698Z,6.07
2019-03-12T11:22:22.861Z,7.93
2019-03-12T11:24:52.671Z,12.27
2019-03-12T11:27:22.442Z,10.47
2019-03-12T11:29:52.485Z,8.00
2019-03-12T11:32:22.146Z,7.17
2019-03-12T11:34:51.859Z,7.63
2019-03-12T11:37:21.683Z,8.57
2019-03-12T11:39:51.778Z,6.07
2019-03-12T11:42:21.917Z,11.53
2019-03-12T11:44:52.101Z,11.20
2019-03-12T11:47:22.019Z,14.03
2019-03-12T11:49:52.017Z,3.23
2019-03-12T11:52:21.769Z,10.57
2019-03-12T11:54:51.998Z,14.03
2019-03-12T11:57:22.136Z,6.53
2019-03-12T11:59:51.999Z,6.87
2019-03-12T12:02:21.765Z,7.20
2019-03-12T12:04:51.609Z,6.33
2019-03-12T12:07:21.418Z,5.77
2019-03-12T12:09:51.451Z,11.40
2019-03-12T12:12:21.177Z,7.30
2019-03-12T12:14:50.978Z,12.73
2019-03-12T12:17:20.658Z,7.37
2019-03-12T12:19:50.761Z,4.07
2019-03-12T12:22:20.553Z,5.20
2019-03-12T12:24:50.318Z,5.03
2019-03-12T12:27:20.075Z,11.37
2019-03-12T12:29:49.925Z,5.40
2019-03-12T12:32:20.091Z,8.03
2019-03-12T12:34:49.926Z,10.03
2019-03-12T12:37:19.776Z,9.07
2019-03-12T12:39:49.815Z,10.97
2019-03-12T12:42:19.497Z,6.20
2019-03-12T12:44:49.848Z,5.37
2019-03-12T12:47:19.636Z,4.60
2019-03-12T12:49:49.488Z,8.60
2019-03-12T12:52:19.626Z,7.97
2019-03-12T12:54:49.837Z,5.30
2019-03-12T12:57:19.667Z,6.93
2019-03-12T12:59:49.408Z,11.87
2019-03-12T13:02:19.264Z,11.13
2019-03-12T13:04:49.004Z,5.07
2019-03-12T13:07:18.929Z,5.50
2019-03-12T13:09:48.646Z,8.77
2019-03-12T13:12:18.495Z,8.50
2019-03-12T13:14:48.188Z,7.33
2019-03-12T13:17:18.055Z,11.60
2019-03-12T13:19:48.100Z,8.57
2019-03-12T13:22:17.798Z,7.37
2019-03-12T13:24:47.549Z,10.63
2019-03-12T13:27:17.698Z,10.50
2019-03-12T13:29:47.422Z,9.60
2019-03-12T13:32:17.228Z,9.07
2019-03-12T13:34:46.987Z,4.67
2019-03-12T13:37:17.038Z,14.30
2019-03-12T13:39:46.913Z,5.67
2019-03-12T13:42:16.722Z,2.77
2019-03-12T13:44:46.772Z,7.33
2019-03-12T13:47:16.725Z,5.83
2019-03-12T13:49:46.766Z,7.63
2019-03-12T13:52:16.552Z,8.37
2019-03-12T13:54:46.284Z,6.07
2019-03-12T13:57:15.989Z,9.83
2019-03-12T13:59:45.701Z,6.63
2019-03-12T14:02:15.812Z,9.27
2019-03-12T14:04:46.618Z,4.70
2019-03-12T14:07:16.516Z,4.07
2019-03-12T14:09:46.463Z,7.37
2019-03-12T14:12:17.231Z,6.50
2019-03-12T14:14:47.000Z,4.23
2019-03-12T14:17:16.770Z,5.93
2019-03-12T14:19:46.601Z,12.20
2019-03-12T14:22:16.656Z,3.70
2019-03-12T14:24:47.887Z,6.90
2019-03-12T14:27:17.682Z,3.40
2019-03-12T14:29:47.495Z,3.97
2019-03-12T14:32:17.296Z,6.80
2019-03-12T14:34:47.359Z,6.00
2019-03-12T14:37:17.009Z,4.03
2019-03-12T14:39:46.726Z,6.97
2019-03-12T14:42:16.813Z,5.67
2019-03-12T14:44:46.928Z,21.43
2019-03-12T14:47:16.714Z,5.43
2019-03-12T14:49:46.395Z,5.10
2019-03-12T14:52:28.200Z,8.47
2019-03-12T14:54:57.907Z,5.13
2019-03-12T14:57:27.676Z,4.03
2019-03-12T14:59:57.746Z,4.87
2019-03-12T15:02:27.557Z,7.00
2019-03-12T15:04:57.339Z,5.97
2019-03-12T15:07:27.040Z,3.13
2019-03-12T15:09:56.947Z,6.40
2019-03-12T15:12:26.689Z,6.93
2019-03-12T15:14:56.497Z,5.67
2019-03-12T15:17:26.441Z,6.87
2019-03-12T15:19:56.243Z,6.90
2019-03-12T15:22:25.961Z,7.70
2019-03-12T15:24:56.945Z,5.50
2019-03-12T15:27:27.726Z,5.33
2019-03-12T15:29:57.432Z,9.80
2019-03-12T15:32:27.577Z,5.03
2019-03-12T15:34:57.701Z,6.60
2019-03-12T15:37:27.514Z,6.07
2019-03-12T15:39:58.361Z,3.40
2019-03-12T15:42:28.112Z,5.50
2019-03-12T15:44:57.804Z,2.77
2019-03-12T15:47:27.596Z,4.70
2019-03-12T15:49:58.557Z,3.50
2019-03-12T15:52:28.260Z,7.17
2019-03-12T15:54:58.113Z,1.37
2019-03-12T15:57:27.945Z,6.13
2019-03-12T15:59:57.704Z,6.63
2019-03-12T16:02:27.758Z,3.17
2019-03-12T16:04:57.589Z,3.33
2019-03-12T16:07:27.390Z,5.37
2019-03-12T16:09:57.276Z,4.87
2019-03-12T16:12:27.061Z,4.60
2019-03-12T16:14:56.837Z,4.97
2019-03-12T16:17:29.676Z,4.90
2019-03-12T16:19:58.449Z,3.73
2019-03-12T16:22:28.332Z,5.00
2019-03-12T16:24:58.023Z,5.43
2019-03-12T16:27:28.215Z,7.47
2019-03-12T16:30:00.809Z,4.30
2019-03-12T16:32:35.247Z,5.67
2019-03-12T16:35:03.945Z,7.03
2019-03-12T16:37:33.829Z,4.23
2019-03-12T16:40:04.288Z,3.93
2019-03-12T16:46:42.423Z,5.53
2019-03-12T16:49:10.838Z,6.67
2019-03-12T16:51:39.291Z,4.17
2019-03-12T17:02:48.163Z,4.60
2019-03-12T17:05:16.700Z,6.47
2019-03-12T17:07:45.270Z,4.47
2019-03-12T17:10:13.929Z,3.30
2019-03-12T17:12:42.415Z,5.13
2019-03-12T17:15:11.319Z,3.47
2019-03-12T17:17:39.778Z,3.20
2019-03-12T17:20:09.595Z,3.43
2019-03-12T17:22:38.110Z,2.20
2019-03-12T17:25:06.630Z,2.97
2019-03-12T17:27:35.372Z,3.13
2019-03-12T17:30:04.106Z,5.90
2019-03-12T17:32:33.583Z,4.27
2019-03-12T17:35:02.313Z,6.33
2019-03-12T17:37:30.767Z,5.97
2019-03-12T17:42:11.895Z,6.40
2019-03-12T17:44:40.566Z,4.17
2019-03-12T17:47:08.944Z,3.27
2019-03-12T17:49:37.437Z,2.80
2019-03-12T17:52:05.964Z,2.03
2019-03-12T17:54:34.480Z,1.30
2019-03-12T17:57:03.248Z,4.00
2019-03-12T17:59:32.584Z,3.37
2019-03-12T18:05:00.815Z,4.43
2019-03-12T18:07:29.846Z,5.00
2019-03-12T18:09:58.355Z,2.60
2019-03-12T18:12:26.920Z,4.43
2019-03-12T18:14:55.276Z,3.97
2019-03-12T18:17:23.736Z,4.53
2019-03-12T18:19:55.108Z,5.23
2019-03-12T18:22:23.695Z,2.30
2019-03-12T18:24:52.140Z,4.00
2019-03-12T18:27:20.733Z,2.63
2019-03-12T18:29:49.056Z,2.10
2019-03-12T18:32:17.500Z,4.37
2019-03-12T18:34:46.232Z,3.03
2019-03-12T18:37:14.928Z,3.47
2019-03-12T18:39:43.682Z,2.87
2019-03-12T18:42:12.141Z,3.70
2019-03-12T18:44:40.557Z,2.40
2019-03-12T18:47:09.258Z,5.30
2019-03-12T18:49:37.702Z,4.43
2019-03-12T18:52:06.123Z,5.87
2019-03-12T18:54:34.543Z,4.17
2019-03-12T18:57:04.003Z,2.60
2019-03-12T19:05:10.398Z,3.97
2019-03-12T19:07:39.237Z,2.63
2019-03-12T19:10:13.130Z,4.27
2019-03-12T19:12:38.402Z,2.30
2019-03-12T19:15:07.110Z,2.47
2019-03-12T19:17:35.518Z,1.93
2019-03-12T19:20:04.139Z,3.40
2019-03-12T19:22:32.614Z,1.83
2019-03-12T19:25:01.386Z,3.30
2019-03-12T19:27:29.930Z,1.83
2019-03-12T19:29:58.687Z,2.33
2019-03-12T19:32:42.179Z,4.00
2019-03-12T19:35:11.972Z,3.17
2019-03-12T20:36:02.141Z,2.87
2019-03-12T20:38:48.887Z,2.33
2019-03-12T20:41:35.698Z,3.50
2019-03-12T20:44:30.548Z,6.03
2019-03-12T20:47:26.184Z,2.77
2019-03-12T20:50:12.316Z,2.00
2019-03-12T20:53:08.808Z,4.73
2019-03-12T20:55:55.143Z,4.70
2019-03-12T20:58:41.292Z,4.83
2019-03-12T21:01:38.005Z,2.07
2019-03-12T21:04:31.686Z,2.90
2019-03-12T21:07:19.347Z,1.60
2019-03-12T21:10:05.600Z,2.70
2019-03-12T21:13:01.794Z,2.70
2019-03-12T21:16:03.384Z,1.63
2019-03-12T21:19:00.031Z,1.87
2019-03-12T21:21:46.186Z,2.67
2019-03-12T21:24:45.991Z,4.00
2019-03-12T21:27:23.613Z,8.43
2019-03-12T21:29:52.418Z,1.83
2019-03-12T21:32:21.137Z,3.13
2019-03-12T21:34:49.820Z,3.67
2019-03-12T21:37:18.770Z,2.33
2019-03-12T21:39:55.253Z,3.53
2019-03-12T21:42:17.555Z,2.93
2019-03-12T21:44:46.141Z,3.40
2019-03-12T21:47:16.001Z,5.00
2019-03-12T21:49:44.471Z,3.33
2019-03-12T21:52:12.947Z,2.47
2019-03-12T21:54:41.754Z,4.60
2019-03-12T21:57:11.199Z,7.77
2019-03-12T21:59:39.876Z,5.23
2019-03-12T22:02:08.670Z,4.63
2019-03-12T22:04:37.346Z,4.33
2019-03-12T22:07:05.780Z,2.10
2019-03-12T22:09:34.606Z,3.10
2019-03-12T22:12:03.241Z,1.90
2019-03-12T22:14:31.720Z,4.43
2019-03-12T22:17:01.858Z,2.77
2019-03-12T22:19:30.414Z,3.12
2019-03-12T22:22:25.096Z,2.53
2019-03-12T22:24:53.674Z,5.43
2019-03-12T22:27:22.066Z,2.53
2019-03-12T22:29:50.706Z,6.57
2019-03-12T22:32:19.303Z,2.97
2019-03-12T22:34:47.731Z,2.50
2019-03-12T22:37:16.231Z,3.77
2019-03-12T22:39:44.758Z,4.67
2019-03-12T22:42:13.231Z,3.27
2019-03-12T22:44:41.947Z,3.30
2019-03-12T22:47:11.364Z,2.87
2019-03-12T22:49:39.856Z,2.67
2019-03-12T22:52:08.367Z,4.97
2019-03-12T22:54:36.715Z,1.70
2019-03-12T22:57:05.638Z,2.93
2019-03-12T22:59:52.102Z,2.20
2019-03-12T23:02:38.198Z,2.87
2019-03-12T23:05:24.515Z,1.40
2019-03-12T23:08:10.984Z,2.23
2019-03-12T23:10:40.106Z,1.50
2019-03-12T23:13:10.215Z,2.37
2019-03-12T23:15:39.886Z,1.93
2019-03-12T23:18:08.751Z,1.73
2019-03-12T23:20:37.315Z,2.97
2019-03-12T23:23:05.930Z,2.10
2019-03-12T23:25:34.481Z,2.37
2019-03-12T23:28:02.960Z,2.33
2019-03-12T23:30:31.535Z,2.27
2019-03-12T23:33:00.040Z,3.23
2019-03-12T23:35:28.764Z,2.50
2019-03-12T23:37:57.263Z,2.03
2019-03-12T23:40:25.750Z,3.23
2019-03-12T23:42:54.499Z,3.30
2019-03-12T23:45:22.966Z,3.20
2019-03-12T23:47:51.458Z,3.90
2019-03-12T23:50:20.015Z,3.27
2019-03-12T23:52:48.471Z,4.53
2019-03-12T23:55:17.344Z,4.33
2019-03-12T23:57:45.961Z,4.00
